createdAt,value
2022-09-07T07:13:04.341Z,22.62
2022-09-07T07:14:06.051Z,22.90
2022-09-07T07:15:08.812Z,22.75
2022-09-07T07:16:15.516Z,22.55
2022-09-07T07:17:16.951Z,22.60
2022-09-07T07:34:36.392Z,24.37
2022-09-07T07:35:37.888Z,24.61
2022-09-07T07:36:39.271Z,24.74
2022-09-07T07:37:41.012Z,24.96
2022-09-07T07:39:00.590Z,25.15
2022-09-07T08:19:13.456Z,27.70
2022-09-07T08:20:16.475Z,27.67
2022-09-07T08:21:21.634Z,28.05
2022-09-07T08:22:22.990Z,28.41
2022-09-07T08:23:24.325Z,28.38
2022-09-07T08:24:25.717Z,28.06
2022-09-07T08:31:04.272Z,26.68
2022-09-07T08:32:06.409Z,27.53
2022-09-07T08:33:07.730Z,27.78
2022-09-07T08:34:09.064Z,27.76
2022-09-07T08:35:10.405Z,27.59
2022-09-07T08:36:14.565Z,26.51
2022-09-07T08:37:15.974Z,26.44
2022-09-07T08:38:20.948Z,26.79
2022-09-07T08:39:22.533Z,26.82
2022-09-07T08:40:23.900Z,25.96
2022-09-07T08:41:59.513Z,26.28
2022-09-07T08:52:23.126Z,26.41
2022-09-07T08:53:25.624Z,26.70
2022-09-07T08:54:31.063Z,26.60
2022-09-07T08:55:38.907Z,26.87
2022-09-07T08:58:45.172Z,26.32
2022-09-07T09:00:00.528Z,26.32
2022-09-07T09:02:27.820Z,26.96
2022-09-07T09:03:34.288Z,27.31
2022-09-07T09:05:16.453Z,26.56
2022-09-07T09:06:05.218Z,26.73
2022-09-07T09:07:22.668Z,27.00
2022-09-07T09:08:41.996Z,27.02
2022-09-07T09:10:01.927Z,26.95
2022-09-07T09:11:21.567Z,26.79
2022-09-07T09:12:56.350Z,27.12
2022-09-07T09:25:33.808Z,28.52
2022-09-07T09:26:35.465Z,29.11
2022-09-07T09:27:36.806Z,28.81
2022-09-07T09:28:39.123Z,29.47
2022-09-07T09:29:41.187Z,29.90
2022-09-07T09:30:42.529Z,30.39
2022-09-07T09:31:47.887Z,30.46
2022-09-07T09:32:52.747Z,30.62
2022-09-07T09:34:09.507Z,30.67
2022-09-07T09:35:13.727Z,30.61
2022-09-07T09:36:31.407Z,30.37
2022-09-07T09:37:34.723Z,30.09
2022-09-07T09:38:40.481Z,29.85
2022-09-07T09:53:40.360Z,26.91
2022-09-07T09:54:44.214Z,26.46
2022-09-07T10:04:30.045Z,27.29
2022-09-07T10:05:40.627Z,27.44
2022-09-07T10:07:09.220Z,27.38
2022-09-07T10:08:31.296Z,26.28
2022-09-07T10:09:38.815Z,26.17
2022-09-07T10:10:53.401Z,26.04
2022-09-07T10:12:08.088Z,26.36
2022-09-07T10:13:21.191Z,26.88
2022-09-07T10:20:19.857Z,29.57
2022-09-07T10:21:28.409Z,29.79
2022-09-07T10:22:37.490Z,30.11
2022-09-07T10:23:39.066Z,30.77
2022-09-07T10:24:41.380Z,31.35
2022-09-07T10:25:48.901Z,31.58
2022-09-07T10:26:50.279Z,31.02
2022-09-07T10:28:09.979Z,30.61
2022-09-07T10:29:30.853Z,31.74
2022-09-07T10:36:03.607Z,32.79
2022-09-07T10:37:10.331Z,33.59
2022-09-07T10:38:20.716Z,33.78
2022-09-07T10:39:35.745Z,33.87
2022-09-07T10:40:42.957Z,34.27
2022-09-07T10:42:19.778Z,32.40
2022-09-07T10:43:36.125Z,33.13
2022-09-07T10:44:42.563Z,33.77
2022-09-07T10:46:07.070Z,34.08
2022-09-07T10:47:21.009Z,34.04
2022-09-07T10:48:45.549Z,32.64
2022-09-07T10:51:47.347Z,30.98
2022-09-07T10:53:37.056Z,30.19
2022-09-07T10:54:53.327Z,29.84
2022-09-07T10:56:15.306Z,28.48
2022-09-07T10:57:35.190Z,29.35
2022-09-07T11:05:12.993Z,32.23
2022-09-07T11:06:52.465Z,31.20
2022-09-07T11:07:56.632Z,31.97
2022-09-07T11:09:17.840Z,32.05
2022-09-07T11:10:29.645Z,32.92
2022-09-07T11:13:05.025Z,33.65
2022-09-07T11:14:13.893Z,33.18
2022-09-07T11:15:18.569Z,32.97
2022-09-07T11:17:01.335Z,33.28
2022-09-07T11:18:04.699Z,33.06
2022-09-07T11:20:58.977Z,31.33
2022-09-07T11:22:13.130Z,31.73
2022-09-07T11:23:20.355Z,30.30
2022-09-07T11:24:43.261Z,30.20
2022-09-07T11:26:08.825Z,31.64
2022-09-07T11:27:19.773Z,30.95
2022-09-07T11:28:25.539Z,30.20
2022-09-07T11:29:43.430Z,29.44
2022-09-07T11:30:59.653Z,28.99
2022-09-07T11:32:13.045Z,30.53
2022-09-07T11:33:38.277Z,31.10
2022-09-07T11:34:47.587Z,30.19
2022-09-07T11:41:06.909Z,29.11
2022-09-07T11:43:45.421Z,29.43
2022-09-07T11:44:53.953Z,30.40
2022-09-07T11:46:05.000Z,29.88
2022-09-07T11:47:23.057Z,30.11
2022-09-07T11:48:31.341Z,31.41
2022-09-07T11:49:32.699Z,31.32
2022-09-07T11:50:39.333Z,32.37
2022-09-07T11:52:04.974Z,33.00
2022-09-07T11:53:27.693Z,33.51
2022-09-07T11:54:55.046Z,32.97
2022-09-07T11:56:02.589Z,33.25
2022-09-07T11:57:03.956Z,33.44
2022-09-07T11:58:24.002Z,33.42
2022-09-07T11:59:40.444Z,33.89
2022-09-07T12:01:18.802Z,34.04
2022-09-07T12:02:58.123Z,33.89
2022-09-07T12:04:46.606Z,33.66
2022-09-07T12:06:32.398Z,33.83
2022-09-07T12:07:42.485Z,34.04
2022-09-07T12:09:13.492Z,34.17
2022-09-07T12:10:42.501Z,33.78
2022-09-07T12:12:02.716Z,34.09
2022-09-07T12:13:25.690Z,34.38
2022-09-07T12:14:35.787Z,34.02
2022-09-07T12:15:59.116Z,34.72
2022-09-07T12:17:26.594Z,34.89
2022-09-07T12:19:20.363Z,34.66
2022-09-07T12:20:28.666Z,34.66
2022-09-07T12:21:53.875Z,35.28
2022-09-07T12:23:06.568Z,35.60
2022-09-07T12:24:29.452Z,36.00
2022-09-07T12:25:33.422Z,35.66
2022-09-07T12:26:35.398Z,35.15
2022-09-07T12:27:38.257Z,34.97
2022-09-07T12:28:39.578Z,35.19
2022-09-07T12:29:45.025Z,34.94
2022-09-07T12:31:14.497Z,34.59
2022-09-07T12:32:54.820Z,34.43
2022-09-07T12:34:37.258Z,34.61
2022-09-07T12:35:40.305Z,33.95
2022-09-07T12:36:49.409Z,34.45
2022-09-07T12:37:50.750Z,34.41
2022-09-07T12:39:06.192Z,34.78
2022-09-07T12:40:33.264Z,34.46
2022-09-07T12:41:44.789Z,34.29
2022-09-07T12:42:48.061Z,34.45
2022-09-07T12:43:49.449Z,34.15
2022-09-07T12:45:29.039Z,33.92
2022-09-07T12:46:34.759Z,34.32
2022-09-07T12:47:36.713Z,34.77
2022-09-07T12:48:51.813Z,34.93
2022-09-07T12:50:19.764Z,34.54
2022-09-07T12:52:54.486Z,33.98
2022-09-07T12:54:18.641Z,33.60
2022-09-07T12:56:15.719Z,33.36
2022-09-07T12:57:33.438Z,32.53
2022-09-07T12:58:49.202Z,32.48
2022-09-07T13:00:20.761Z,33.05
2022-09-07T13:01:49.672Z,33.49
2022-09-07T13:05:06.929Z,30.59
2022-09-07T13:08:27.949Z,31.53
2022-09-07T13:09:35.451Z,32.48
2022-09-07T13:10:39.434Z,33.28
2022-09-07T13:11:41.128Z,33.31
2022-09-07T13:12:54.784Z,33.86
2022-09-07T13:14:04.799Z,33.99
2022-09-07T13:15:24.035Z,34.20
2022-09-07T13:17:15.935Z,34.54
2022-09-07T13:17:56.361Z,35.00
2022-09-07T13:18:59.266Z,34.22
2022-09-07T13:20:01.333Z,34.46
2022-09-07T13:21:08.519Z,34.32
2022-09-07T13:22:35.455Z,33.28
2022-09-07T13:23:45.718Z,33.53
2022-09-07T13:24:52.671Z,34.25
2022-09-07T13:25:56.074Z,34.52
2022-09-07T13:26:58.410Z,34.97
2022-09-07T13:28:03.037Z,34.91
2022-09-07T13:36:00.226Z,33.70
2022-09-07T13:37:04.244Z,34.24
2022-09-07T13:38:11.839Z,33.82
2022-09-07T13:39:17.635Z,34.10
2022-09-07T13:40:24.054Z,34.11
2022-09-07T13:41:40.444Z,34.32
2022-09-07T13:42:43.374Z,33.34
2022-09-07T13:43:49.292Z,34.37
2022-09-07T13:44:57.041Z,34.26
2022-09-07T13:46:05.289Z,34.27
2022-09-07T13:47:24.970Z,33.57
2022-09-07T13:48:36.241Z,33.98
2022-09-07T13:49:56.134Z,34.38
2022-09-07T13:51:16.187Z,33.87
2022-09-07T13:52:34.827Z,34.16
2022-09-07T13:54:02.435Z,33.05
2022-09-07T13:55:28.701Z,33.07
2022-09-07T13:56:33.046Z,32.64
2022-09-07T13:58:13.530Z,33.31
2022-09-07T13:59:22.297Z,33.74
2022-09-07T14:00:24.560Z,34.07
2022-09-07T14:01:27.902Z,34.12
2022-09-07T14:02:33.466Z,34.33
2022-09-07T14:03:56.698Z,33.73
2022-09-07T14:05:00.451Z,34.25
2022-09-07T14:06:35.952Z,34.11
2022-09-07T14:07:43.665Z,33.94
2022-09-07T14:08:53.864Z,34.63
2022-09-07T14:10:20.390Z,34.50
2022-09-07T14:11:23.567Z,33.47
2022-09-07T14:12:25.020Z,32.63
2022-09-07T14:13:26.701Z,31.51
2022-09-07T14:14:30.869Z,30.64
2022-09-07T14:15:37.150Z,30.52
2022-09-07T14:22:06.139Z,29.58
2022-09-07T14:49:40.822Z,25.68
2022-09-07T14:50:57.099Z,25.38
2022-09-07T14:52:06.969Z,25.58
2022-09-07T14:54:35.340Z,26.59
2022-09-07T14:55:43.298Z,26.76
2022-09-07T14:57:00.985Z,27.01
2022-09-07T14:58:14.516Z,27.50
2022-09-07T14:59:40.553Z,27.84
2022-09-07T15:00:45.038Z,28.15
2022-09-07T15:01:46.709Z,28.25
2022-09-07T15:02:48.515Z,27.97
2022-09-07T15:03:51.965Z,28.06
2022-09-07T15:10:07.937Z,28.33
2022-09-07T15:12:42.148Z,28.71
2022-09-07T15:13:45.647Z,28.71
2022-09-07T15:14:47.893Z,28.47
2022-09-07T15:15:58.502Z,28.27
2022-09-07T15:18:50.603Z,27.44
2022-09-07T15:19:52.064Z,27.15
2022-09-07T15:39:54.961Z,25.40
2022-09-07T15:50:19.279Z,25.00
2022-09-07T15:52:48.297Z,25.01
